sensor_id;sensor_type;location;lat;lon;timestamp;pressure;altitude;pressure_sealevel;temperature;humidity
550;BME280;20066;48.764;9.176;2023-05-02T00:01:48;98290.38;;;12.63;72.94
550;BME280;20066;48.764;9.176;2023-05-02T00:04:16;98288.69;;;12.87;70.89
550;BME280;20066;48.764;9.176;2023-05-02T00:06:44;98288.16;;;13.09;70.79
550;BME280;20066;48.764;9.176;2023-05-02T00:09:12;98283.44;;;13.24;69.34
550;BME280;20066;48.764;9.176;2023-05-02T00:11:41;98289.00;;;12.99;69.76
550;BME280;20066;48.764;9.176;2023-05-02T00:14:09;98289.09;;;12.89;69.62
550;BME280;20066;48.764;9.176;2023-05-02T00:16:38;98288.34;;;12.81;70.96
550;BME280;20066;48.764;9.176;2023-05-02T00:19:05;98279.75;;;12.27;72.18
550;BME280;20066;48.764;9.176;2023-05-02T00:21:33;98279.88;;;12.75;72.26
550;BME280;20066;48.764;9.176;2023-05-02T00:24:01;98281.72;;;12.93;70.34
550;BME280;20066;48.764;9.176;2023-05-02T00:26:29;98281.56;;;13.14;69.09
550;BME280;20066;48.764;9.176;2023-05-02T00:28:57;98289.38;;;13.05;70.35
550;BME280;20066;48.764;9.176;2023-05-02T00:31:24;98279.91;;;12.68;69.81
550;BME280;20066;48.764;9.176;2023-05-02T00:33:54;98280.13;;;13.02;69.87
550;BME280;20066;48.764;9.176;2023-05-02T00:36:22;98278.38;;;12.74;71.93
550;BME280;20066;48.764;9.176;2023-05-02T00:38:50;98286.75;;;12.87;70.54
550;BME280;20066;48.764;9.176;2023-05-02T00:41:18;98282.69;;;12.54;70.65
550;BME280;20066;48.764;9.176;2023-05-02T00:43:45;98290.25;;;12.84;70.26
550;BME280;20066;48.764;9.176;2023-05-02T00:46:13;98281.28;;;13.05;68.83
550;BME280;20066;48.764;9.176;2023-05-02T00:48:41;98280.97;;;12.92;70.05
550;BME280;20066;48.764;9.176;2023-05-02T00:51:12;98281.06;;;12.74;70.81
550;BME280;20066;48.764;9.176;2023-05-02T00:53:39;98287.84;;;13.04;68.78
550;BME280;20066;48.764;9.176;2023-05-02T00:56:07;98292.59;;;12.82;69.66
550;BME280;20066;48.764;9.176;2023-05-02T00:58:36;98289.50;;;12.80;68.74
550;BME280;20066;48.764;9.176;2023-05-02T01:01:17;98288.38;;;12.74;69.92
550;BME280;20066;48.764;9.176;2023-05-02T01:03:56;98283.81;;;12.64;68.83
550;BME280;20066;48.764;9.176;2023-05-02T01:06:37;98290.31;;;12.70;68.65
550;BME280;20066;48.764;9.176;2023-05-02T01:09:16;98283.25;;;12.97;68.38
550;BME280;20066;48.764;9.176;2023-05-02T01:11:52;98290.81;;;12.54;70.00
550;BME280;20066;48.764;9.176;2023-05-02T01:14:24;98296.06;;;12.75;67.71
550;BME280;20066;48.764;9.176;2023-05-02T01:16:54;98295.22;;;12.96;68.15
550;BME280;20066;48.764;9.176;2023-05-02T01:19:26;98297.56;;;12.87;67.62
550;BME280;20066;48.764;9.176;2023-05-02T01:21:58;98300.84;;;12.47;68.11
550;BME280;20066;48.764;9.176;2023-05-02T01:24:31;98306.47;;;12.81;68.87
550;BME280;20066;48.764;9.176;2023-05-02T01:27:17;98304.63;;;12.60;69.03
550;BME280;20066;48.764;9.176;2023-05-02T01:29:53;98305.06;;;12.58;69.11
550;BME280;20066;48.764;9.176;2023-05-02T01:32:26;98305.25;;;12.05;71.12
550;BME280;20066;48.764;9.176;2023-05-02T01:34:57;98308.88;;;12.61;69.27
550;BME280;20066;48.764;9.176;2023-05-02T01:37:27;98299.47;;;12.10;71.49
550;BME280;20066;48.764;9.176;2023-05-02T01:39:56;98300.78;;;12.61;69.31
550;BME280;20066;48.764;9.176;2023-05-02T01:42:26;98291.91;;;12.64;68.67
550;BME280;20066;48.764;9.176;2023-05-02T01:44:57;98297.34;;;12.57;69.43
550;BME280;20066;48.764;9.176;2023-05-02T01:47:28;98304.59;;;12.70;67.73
550;BME280;20066;48.764;9.176;2023-05-02T01:49:57;98306.88;;;12.75;67.65
550;BME280;20066;48.764;9.176;2023-05-02T01:52:26;98313.22;;;12.37;68.80
550;BME280;20066;48.764;9.176;2023-05-02T01:54:56;98310.69;;;11.94;69.74
550;BME280;20066;48.764;9.176;2023-05-02T01:57:26;98305.56;;;12.32;70.26
550;BME280;20066;48.764;9.176;2023-05-02T01:59:57;98307.47;;;12.35;69.37
550;BME280;20066;48.764;9.176;2023-05-02T02:02:26;98311.25;;;12.48;69.42
550;BME280;20066;48.764;9.176;2023-05-02T02:04:56;98313.31;;;12.19;70.23
550;BME280;20066;48.764;9.176;2023-05-02T02:07:26;98309.91;;;12.05;71.30
550;BME280;20066;48.764;9.176;2023-05-02T02:09:53;98315.66;;;12.03;69.46
550;BME280;20066;48.764;9.176;2023-05-02T02:12:25;98312.56;;;12.08;70.45
550;BME280;20066;48.764;9.176;2023-05-02T02:14:59;98311.81;;;12.04;69.04
550;BME280;20066;48.764;9.176;2023-05-02T02:17:33;98320.16;;;12.42;69.58
550;BME280;20066;48.764;9.176;2023-05-02T02:20:05;98318.59;;;12.48;68.42
550;BME280;20066;48.764;9.176;2023-05-02T02:22:37;98328.66;;;12.33;67.96
550;BME280;20066;48.764;9.176;2023-05-02T02:25:08;98330.47;;;12.61;67.29
550;BME280;20066;48.764;9.176;2023-05-02T02:27:37;98332.63;;;12.04;70.56
550;BME280;20066;48.764;9.176;2023-05-02T02:30:08;98337.59;;;12.12;70.61
550;BME280;20066;48.764;9.176;2023-05-02T02:32:36;98337.56;;;12.16;70.33
550;BME280;20066;48.764;9.176;2023-05-02T02:35:04;98338.34;;;12.13;69.46
550;BME280;20066;48.764;9.176;2023-05-02T02:37:34;98343.25;;;12.46;68.61
550;BME280;20066;48.764;9.176;2023-05-02T02:40:07;98340.53;;;12.53;67.41
550;BME280;20066;48.764;9.176;2023-05-02T02:42:41;98350.22;;;12.40;68.05
550;BME280;20066;48.764;9.176;2023-05-02T02:45:22;98344.38;;;12.52;66.74
550;BME280;20066;48.764;9.176;2023-05-02T02:47:59;98343.75;;;12.06;69.69
550;BME280;20066;48.764;9.176;2023-05-02T02:50:31;98357.31;;;11.70;71.67
550;BME280;20066;48.764;9.176;2023-05-02T02:53:01;98356.50;;;11.55;71.75
550;BME280;20066;48.764;9.176;2023-05-02T02:55:35;98358.81;;;11.96;70.04
550;BME280;20066;48.764;9.176;2023-05-02T02:58:14;98359.97;;;11.59;71.57
550;BME280;20066;48.764;9.176;2023-05-02T03:00:45;98368.84;;;11.74;70.44
550;BME280;20066;48.764;9.176;2023-05-02T03:03:14;98373.78;;;12.15;70.53
550;BME280;20066;48.764;9.176;2023-05-02T03:05:42;98383.44;;;12.19;69.80
550;BME280;20066;48.764;9.176;2023-05-02T03:08:10;98384.19;;;12.20;nan
550;BME280;20066;48.764;9.176;2023-05-02T03:10:39;98384.97;;;12.17;68.50
550;BME280;20066;48.764;9.176;2023-05-02T03:13:06;98394.59;;;12.14;68.69
550;BME280;20066;48.764;9.176;2023-05-02T03:16:11;98406.09;;;12.29;68.75
550;BME280;20066;48.764;9.176;2023-05-02T03:18:44;98396.53;;;12.07;69.55
550;BME280;20066;48.764;9.176;2023-05-02T03:21:11;98395.72;;;12.27;68.29
550;BME280;20066;48.764;9.176;2023-05-02T03:23:39;98406.47;;;12.42;68.26
550;BME280;20066;48.764;9.176;2023-05-02T03:26:07;98401.78;;;12.60;66.31
550;BME280;20066;48.764;9.176;2023-05-02T03:28:35;98407.31;;;12.17;67.92
550;BME280;20066;48.764;9.176;2023-05-02T03:31:02;98408.41;;;12.41;68.42
550;BME280;20066;48.764;9.176;2023-05-02T03:33:32;98409.84;;;12.67;66.97
550;BME280;20066;48.764;9.176;2023-05-02T03:35:59;98414.00;;;12.96;65.98
550;BME280;20066;48.764;9.176;2023-05-02T03:38:28;98411.81;;;12.52;67.10
550;BME280;20066;48.764;9.176;2023-05-02T03:40:56;98416.47;;;12.45;68.73
550;BME280;20066;48.764;9.176;2023-05-02T03:43:24;98424.16;;;12.57;67.96
550;BME280;20066;48.764;9.176;2023-05-02T03:45:51;98432.16;;;12.85;66.49
550;BME280;20066;48.764;9.176;2023-05-02T03:48:19;98429.22;;;12.41;68.93
550;BME280;20066;48.764;9.176;2023-05-02T03:50:49;98434.94;;;12.60;65.97
550;BME280;20066;48.764;9.176;2023-05-02T03:53:17;98439.97;;;12.44;68.51
550;BME280;20066;48.764;9.176;2023-05-02T03:55:44;98443.00;;;12.74;67.24
550;BME280;20066;48.764;9.176;2023-05-02T03:58:12;98443.03;;;12.64;67.43
550;BME280;20066;48.764;9.176;2023-05-02T04:00:40;98441.44;;;12.81;66.55
550;BME280;20066;48.764;9.176;2023-05-02T04:03:08;98442.56;;;12.90;66.65
550;BME280;20066;48.764;9.176;2023-05-02T04:05:36;98452.19;;;12.84;66.01
550;BME280;20066;48.764;9.176;2023-05-02T04:08:05;98456.81;;;13.01;66.89
550;BME280;20066;48.764;9.176;2023-05-02T04:10:33;98452.09;;;13.20;65.09
550;BME280;20066;48.764;9.176;2023-05-02T04:13:01;98452.38;;;12.24;69.00
550;BME280;20066;48.764;9.176;2023-05-02T04:15:30;98454.63;;;12.54;69.22
550;BME280;20066;48.764;9.176;2023-05-02T04:17:58;98459.56;;;12.80;67.03
550;BME280;20066;48.764;9.176;2023-05-02T04:20:26;98459.63;;;12.59;68.91
550;BME280;20066;48.764;9.176;2023-05-02T04:22:53;98461.00;;;13.09;66.50
550;BME280;20066;48.764;9.176;2023-05-02T04:25:22;98463.91;;;12.21;69.15
550;BME280;20066;48.764;9.176;2023-05-02T04:27:50;98464.22;;;12.62;69.56
550;BME280;20066;48.764;9.176;2023-05-02T04:30:18;98464.16;;;12.90;67.16
550;BME280;20066;48.764;9.176;2023-05-02T04:32:46;98470.97;;;13.23;66.56
550;BME280;20066;48.764;9.176;2023-05-02T04:35:14;98466.47;;;12.92;67.74
550;BME280;20066;48.764;9.176;2023-05-02T04:37:43;98471.47;;;13.00;67.78
550;BME280;20066;48.764;9.176;2023-05-02T04:40:11;98471.06;;;13.02;68.10
550;BME280;20066;48.764;9.176;2023-05-02T04:42:41;98464.66;;;12.46;68.41
550;BME280;20066;48.764;9.176;2023-05-02T04:45:09;98472.00;;;12.24;71.19
550;BME280;20066;48.764;9.176;2023-05-02T04:47:36;98465.41;;;12.54;71.99
550;BME280;20066;48.764;9.176;2023-05-02T04:50:06;98469.53;;;13.04;68.24
550;BME280;20066;48.764;9.176;2023-05-02T04:52:34;98472.59;;;13.06;68.89
550;BME280;20066;48.764;9.176;2023-05-02T04:55:02;98481.38;;;13.28;67.42
550;BME280;20066;48.764;9.176;2023-05-02T04:57:30;98485.22;;;13.31;66.76
550;BME280;20066;48.764;9.176;2023-05-02T05:00:00;98486.63;;;12.41;69.37
550;BME280;20066;48.764;9.176;2023-05-02T05:02:28;98483.03;;;13.04;68.21
550;BME280;20066;48.764;9.176;2023-05-02T05:04:56;98482.25;;;13.04;67.47
550;BME280;20066;48.764;9.176;2023-05-02T05:07:24;98484.81;;;13.32;67.45
550;BME280;20066;48.764;9.176;2023-05-02T05:09:51;98487.91;;;13.31;67.66
550;BME280;20066;48.764;9.176;2023-05-02T05:12:19;98484.06;;;13.32;67.59
550;BME280;20066;48.764;9.176;2023-05-02T05:14:47;98491.63;;;13.55;67.68
550;BME280;20066;48.764;9.176;2023-05-02T05:17:16;98502.31;;;13.79;66.20
550;BME280;20066;48.764;9.176;2023-05-02T05:19:44;98508.44;;;13.87;65.50
550;BME280;20066;48.764;9.176;2023-05-02T05:22:12;98509.06;;;14.12;64.64
550;BME280;20066;48.764;9.176;2023-05-02T05:24:41;98512.59;;;14.06;64.24
550;BME280;20066;48.764;9.176;2023-05-02T05:27:08;98527.63;;;14.10;65.65
550;BME280;20066;48.764;9.176;2023-05-02T05:29:36;98521.81;;;14.56;62.85
550;BME280;20066;48.764;9.176;2023-05-02T05:32:04;98534.72;;;14.79;61.94
550;BME280;20066;48.764;9.176;2023-05-02T05:34:34;98544.63;;;14.93;61.78
550;BME280;20066;48.764;9.176;2023-05-02T05:37:01;98545.19;;;14.36;62.52
550;BME280;20066;48.764;9.176;2023-05-02T05:39:29;98543.00;;;14.20;63.91
550;BME280;20066;48.764;9.176;2023-05-02T05:41:58;98550.88;;;13.97;65.02
550;BME280;20066;48.764;9.176;2023-05-02T05:44:26;98550.06;;;14.00;66.14
550;BME280;20066;48.764;9.176;2023-05-02T05:46:53;98555.75;;;14.68;63.66
550;BME280;20066;48.764;9.176;2023-05-02T05:49:22;98550.69;;;14.70;62.23
550;BME280;20066;48.764;9.176;2023-05-02T05:51:51;98555.06;;;14.02;63.48
550;BME280;20066;48.764;9.176;2023-05-02T05:54:19;98557.31;;;14.21;62.83
550;BME280;20066;48.764;9.176;2023-05-02T05:56:47;98567.34;;;14.20;63.64
550;BME280;20066;48.764;9.176;2023-05-02T05:59:15;98564.06;;;14.84;60.75
550;BME280;20066;48.764;9.176;2023-05-02T06:01:42;98570.59;;;14.49;62.48
550;BME280;20066;48.764;9.176;2023-05-02T06:04:11;98578.53;;;15.08;60.33
550;BME280;20066;48.764;9.176;2023-05-02T06:06:39;98580.16;;;15.02;59.29
550;BME280;20066;48.764;9.176;2023-05-02T06:09:08;98576.19;;;13.59;63.17
550;BME280;20066;48.764;9.176;2023-05-02T06:11:36;98577.94;;;14.49;61.62
550;BME280;20066;48.764;9.176;2023-05-02T06:14:04;98585.72;;;13.81;64.53
550;BME280;20066;48.764;9.176;2023-05-02T06:16:32;98587.19;;;12.84;66.01
550;BME280;20066;48.764;9.176;2023-05-02T06:19:00;98584.31;;;13.59;64.32
550;BME280;20066;48.764;9.176;2023-05-02T06:21:27;98590.97;;;14.61;61.84
550;BME280;20066;48.764;9.176;2023-05-02T06:23:56;98591.50;;;14.45;61.91
550;BME280;20066;48.764;9.176;2023-05-02T06:26:26;98594.31;;;14.31;62.16
550;BME280;20066;48.764;9.176;2023-05-02T06:28:53;98599.72;;;14.35;61.84
550;BME280;20066;48.764;9.176;2023-05-02T06:31:22;98605.34;;;14.54;61.68
550;BME280;20066;48.764;9.176;2023-05-02T06:33:50;98600.19;;;14.71;60.94
550;BME280;20066;48.764;9.176;2023-05-02T06:36:18;98608.59;;;14.83;60.23
550;BME280;20066;48.764;9.176;2023-05-02T06:38:46;98614.63;;;15.39;59.03
550;BME280;20066;48.764;9.176;2023-05-02T06:41:14;98616.25;;;15.94;57.44
550;BME280;20066;48.764;9.176;2023-05-02T06:43:45;98612.63;;;14.64;59.16
550;BME280;20066;48.764;9.176;2023-05-02T06:46:12;98622.50;;;14.37;62.08
550;BME280;20066;48.764;9.176;2023-05-02T06:48:40;98618.09;;;13.95;63.12
550;BME280;20066;48.764;9.176;2023-05-02T06:51:08;98615.91;;;14.38;61.67
550;BME280;20066;48.764;9.176;2023-05-02T06:53:36;98617.59;;;14.18;62.02
550;BME280;20066;48.764;9.176;2023-05-02T06:56:04;98623.94;;;13.86;63.10
550;BME280;20066;48.764;9.176;2023-05-02T06:58:32;98618.78;;;15.13;59.86
550;BME280;20066;48.764;9.176;2023-05-02T07:01:02;98633.75;;;14.80;60.59
550;BME280;20066;48.764;9.176;2023-05-02T07:03:29;98635.38;;;15.19;58.86
550;BME280;20066;48.764;9.176;2023-05-02T07:05:58;98640.97;;;14.49;60.89
550;BME280;20066;48.764;9.176;2023-05-02T07:08:26;98646.31;;;13.94;63.43
550;BME280;20066;48.764;9.176;2023-05-02T07:10:54;98642.13;;;14.48;61.82
550;BME280;20066;48.764;9.176;2023-05-02T07:13:21;98652.78;;;15.55;57.22
550;BME280;20066;48.764;9.176;2023-05-02T07:15:49;98655.56;;;15.14;58.78
550;BME280;20066;48.764;9.176;2023-05-02T07:18:18;98651.41;;;14.99;59.73
550;BME280;20066;48.764;9.176;2023-05-02T07:20:46;98660.19;;;14.65;60.77
550;BME280;20066;48.764;9.176;2023-05-02T07:23:15;98661.63;;;14.77;60.62
550;BME280;20066;48.764;9.176;2023-05-02T07:25:43;98662.19;;;15.02;59.40
550;BME280;20066;48.764;9.176;2023-05-02T07:28:11;98669.28;;;14.89;58.85
550;BME280;20066;48.764;9.176;2023-05-02T07:30:39;98669.22;;;14.96;59.79
550;BME280;20066;48.764;9.176;2023-05-02T07:33:07;98663.28;;;14.02;61.62
550;BME280;20066;48.764;9.176;2023-05-02T07:35:36;98666.19;;;13.38;64.31
550;BME280;20066;48.764;9.176;2023-05-02T07:38:04;98671.44;;;15.12;60.13
550;BME280;20066;48.764;9.176;2023-05-02T07:40:31;98672.03;;;14.86;59.74
550;BME280;20066;48.764;9.176;2023-05-02T07:42:59;98665.66;;;15.81;57.66
550;BME280;20066;48.764;9.176;2023-05-02T07:45:28;98652.41;;;14.71;61.74
550;BME280;20066;48.764;9.176;2023-05-02T07:47:56;98665.31;;;15.46;57.52
550;BME280;20066;48.764;9.176;2023-05-02T07:50:24;98673.63;;;15.24;59.51
550;BME280;20066;48.764;9.176;2023-05-02T07:52:54;98673.22;;;16.28;56.81
550;BME280;20066;48.764;9.176;2023-05-02T07:55:22;98677.31;;;16.89;54.56
550;BME280;20066;48.764;9.176;2023-05-02T07:57:51;98675.91;;;17.05;53.95
550;BME280;20066;48.764;9.176;2023-05-02T08:00:19;98684.84;;;16.55;55.39
550;BME280;20066;48.764;9.176;2023-05-02T08:02:47;98685.31;;;17.00;53.49
550;BME280;20066;48.764;9.176;2023-05-02T08:05:15;98688.22;;;17.56;52.85
550;BME280;20066;48.764;9.176;2023-05-02T08:07:44;98688.28;;;17.09;53.75
550;BME280;20066;48.764;9.176;2023-05-02T08:10:13;98699.47;;;15.73;58.10
550;BME280;20066;48.764;9.176;2023-05-02T08:12:41;98697.09;;;14.97;60.49
550;BME280;20066;48.764;9.176;2023-05-02T08:15:11;98705.94;;;15.83;58.69
550;BME280;20066;48.764;9.176;2023-05-02T08:17:39;98706.84;;;15.69;57.82
550;BME280;20066;48.764;9.176;2023-05-02T08:20:07;98705.75;;;15.29;59.33
550;BME280;20066;48.764;9.176;2023-05-02T08:22:35;98706.63;;;15.16;59.21
550;BME280;20066;48.764;9.176;2023-05-02T08:25:04;98709.81;;;15.48;59.42
550;BME280;20066;48.764;9.176;2023-05-02T08:27:33;98704.88;;;14.91;60.20
550;BME280;20066;48.764;9.176;2023-05-02T08:30:01;98715.16;;;15.55;58.33
550;BME280;20066;48.764;9.176;2023-05-02T08:32:30;98713.25;;;15.52;58.85
550;BME280;20066;48.764;9.176;2023-05-02T08:34:58;98718.88;;;16.36;56.61
550;BME280;20066;48.764;9.176;2023-05-02T08:37:26;98722.06;;;16.58;56.01
550;BME280;20066;48.764;9.176;2023-05-02T08:39:54;98713.22;;;15.90;56.64
550;BME280;20066;48.764;9.176;2023-05-02T08:42:22;98718.56;;;16.84;54.14
550;BME280;20066;48.764;9.176;2023-05-02T08:44:51;98713.09;;;17.34;52.91
550;BME280;20066;48.764;9.176;2023-05-02T08:47:20;98713.88;;;18.34;51.02
550;BME280;20066;48.764;9.176;2023-05-02T08:49:49;98714.81;;;18.27;50.24
550;BME280;20066;48.764;9.176;2023-05-02T08:52:19;98719.69;;;18.36;49.73
550;BME280;20066;48.764;9.176;2023-05-02T08:54:47;98715.41;;;17.56;51.46
550;BME280;20066;48.764;9.176;2023-05-02T08:57:17;98718.09;;;16.63;53.79
550;BME280;20066;48.764;9.176;2023-05-02T08:59:44;98711.50;;;18.00;50.75
550;BME280;20066;48.764;9.176;2023-05-02T09:02:23;98718.50;;;17.15;54.82
550;BME280;20066;48.764;9.176;2023-05-02T09:05:00;98717.59;;;17.45;52.24
550;BME280;20066;48.764;9.176;2023-05-02T09:07:43;98725.03;;;17.17;53.10
550;BME280;20066;48.764;9.176;2023-05-02T09:10:12;98731.94;;;16.99;53.24
550;BME280;20066;48.764;9.176;2023-05-02T09:12:40;98729.78;;;17.56;52.75
550;BME280;20066;48.764;9.176;2023-05-02T09:15:08;98732.66;;;17.49;51.82
550;BME280;20066;48.764;9.176;2023-05-02T09:17:45;98732.44;;;18.75;49.74
550;BME280;20066;48.764;9.176;2023-05-02T09:20:15;98731.66;;;18.74;48.22
550;BME280;20066;48.764;9.176;2023-05-02T09:22:49;98739.84;;;18.22;50.54
550;BME280;20066;48.764;9.176;2023-05-02T09:25:18;98736.22;;;17.86;49.67
550;BME280;20066;48.764;9.176;2023-05-02T09:27:53;98736.59;;;17.68;50.75
550;BME280;20066;48.764;9.176;2023-05-02T09:30:23;98732.44;;;16.06;56.23
550;BME280;20066;48.764;9.176;2023-05-02T09:32:52;98730.31;;;17.28;53.15
550;BME280;20066;48.764;9.176;2023-05-02T09:35:22;98724.13;;;18.10;51.11
550;BME280;20066;48.764;9.176;2023-05-02T09:37:54;98730.31;;;18.82;48.36
550;BME280;20066;48.764;9.176;2023-05-02T09:40:22;98728.47;;;18.07;50.01
550;BME280;20066;48.764;9.176;2023-05-02T09:42:51;98733.25;;;17.37;49.97
550;BME280;20066;48.764;9.176;2023-05-02T09:45:23;98738.97;;;17.43;51.68
550;BME280;20066;48.764;9.176;2023-05-02T09:47:53;98728.53;;;18.40;48.54
550;BME280;20066;48.764;9.176;2023-05-02T09:50:37;98729.34;;;17.81;49.52
550;BME280;20066;48.764;9.176;2023-05-02T09:53:06;98720.47;;;18.89;48.45
550;BME280;20066;48.764;9.176;2023-05-02T09:55:35;98723.00;;;19.28;45.99
550;BME280;20066;48.764;9.176;2023-05-02T09:58:03;98732.63;;;20.19;43.57
550;BME280;20066;48.764;9.176;2023-05-02T10:00:50;98732.97;;;21.70;42.13
550;BME280;20066;48.764;9.176;2023-05-02T10:03:23;98735.63;;;21.13;43.16
550;BME280;20066;48.764;9.176;2023-05-02T10:05:51;98731.66;;;20.13;43.13
550;BME280;20066;48.764;9.176;2023-05-02T10:08:21;98738.88;;;21.21;43.29
550;BME280;20066;48.764;9.176;2023-05-02T10:10:52;98744.72;;;18.83;46.76
550;BME280;20066;48.764;9.176;2023-05-02T10:13:22;98732.91;;;19.96;45.86
550;BME280;20066;48.764;9.176;2023-05-02T10:15:58;98743.75;;;17.58;49.42
550;BME280;20066;48.764;9.176;2023-05-02T10:18:38;98748.94;;;17.03;53.65
550;BME280;20066;48.764;9.176;2023-05-02T10:21:09;98748.38;;;18.76;48.52
550;BME280;20066;48.764;9.176;2023-05-02T10:23:41;98737.97;;;17.99;50.24
550;BME280;20066;48.764;9.176;2023-05-02T10:26:13;98748.03;;;20.13;43.81
550;BME280;20066;48.764;9.176;2023-05-02T10:28:41;98744.53;;;19.71;43.78
550;BME280;20066;48.764;9.176;2023-05-02T10:31:09;98747.59;;;20.15;43.50
550;BME280;20066;48.764;9.176;2023-05-02T10:33:39;98744.44;;;20.16;42.46
550;BME280;20066;48.764;9.176;2023-05-02T10:36:08;98745.34;;;22.71;37.20
550;BME280;20066;48.764;9.176;2023-05-02T10:38:39;98741.34;;;24.39;34.43
550;BME280;20066;48.764;9.176;2023-05-02T10:41:11;98735.53;;;24.88;33.37
550;BME280;20066;48.764;9.176;2023-05-02T10:43:40;98736.16;;;25.07;32.19
550;BME280;20066;48.764;9.176;2023-05-02T10:46:32;98726.59;;;21.95;39.08
550;BME280;20066;48.764;9.176;2023-05-02T10:49:03;98728.00;;;22.52;38.03
550;BME280;20066;48.764;9.176;2023-05-02T10:51:32;98723.56;;;23.80;36.97
550;BME280;20066;48.764;9.176;2023-05-02T10:54:22;98716.88;;;22.46;37.81
550;BME280;20066;48.764;9.176;2023-05-02T10:57:04;98717.31;;;22.76;37.43
550;BME280;20066;48.764;9.176;2023-05-02T10:59:33;98719.09;;;24.19;34.66
550;BME280;20066;48.764;9.176;2023-05-02T11:02:02;98713.97;;;22.81;35.82
550;BME280;20066;48.764;9.176;2023-05-02T11:04:59;98722.16;;;21.88;38.26
550;BME280;20066;48.764;9.176;2023-05-02T11:07:29;98722.47;;;24.05;34.70
550;BME280;20066;48.764;9.176;2023-05-02T11:10:23;98706.88;;;22.61;36.20
550;BME280;20066;48.764;9.176;2023-05-02T11:12:52;98710.66;;;19.69;40.99
550;BME280;20066;48.764;9.176;2023-05-02T11:15:54;98710.19;;;20.53;39.47
550;BME280;20066;48.764;9.176;2023-05-02T11:18:25;98710.28;;;21.91;37.77
550;BME280;20066;48.764;9.176;2023-05-02T11:21:24;98706.09;;;21.99;35.73
550;BME280;20066;48.764;9.176;2023-05-02T11:24:37;98704.63;;;22.38;35.58
550;BME280;20066;48.764;9.176;2023-05-02T11:27:37;98702.38;;;21.02;38.98
550;BME280;20066;48.764;9.176;2023-05-02T11:30:06;98709.72;;;19.59;41.69
550;BME280;20066;48.764;9.176;2023-05-02T11:33:11;98710.84;;;19.00;44.47
550;BME280;20066;48.764;9.176;2023-05-02T11:35:43;98710.44;;;19.02;44.53
550;BME280;20066;48.764;9.176;2023-05-02T11:38:15;98711.50;;;18.88;43.38
550;BME280;20066;48.764;9.176;2023-05-02T11:40:51;98704.25;;;20.29;41.33
550;BME280;20066;48.764;9.176;2023-05-02T11:43:19;98710.22;;;23.05;36.24
550;BME280;20066;48.764;9.176;2023-05-02T11:45:48;98700.84;;;24.82;33.19
550;BME280;20066;48.764;9.176;2023-05-02T11:48:18;98706.59;;;24.09;33.33
550;BME280;20066;48.764;9.176;2023-05-02T11:50:50;98698.03;;;20.92;38.60
550;BME280;20066;48.764;9.176;2023-05-02T11:53:20;98706.75;;;21.25;40.00
550;BME280;20066;48.764;9.176;2023-05-02T11:55:50;98705.97;;;21.12;39.20
550;BME280;20066;48.764;9.176;2023-05-02T11:58:19;98701.75;;;22.73;37.22
550;BME280;20066;48.764;9.176;2023-05-02T12:00:48;98701.69;;;23.13;34.50
550;BME280;20066;48.764;9.176;2023-05-02T12:03:25;98711.03;;;21.48;37.64
550;BME280;20066;48.764;9.176;2023-05-02T12:05:54;98710.28;;;23.69;34.27
550;BME280;20066;48.764;9.176;2023-05-02T12:08:26;98710.97;;;22.57;35.03
550;BME280;20066;48.764;9.176;2023-05-02T12:10:55;98721.00;;;22.91;36.02
550;BME280;20066;48.764;9.176;2023-05-02T12:13:24;98702.59;;;23.28;33.19
550;BME280;20066;48.764;9.176;2023-05-02T12:15:53;98712.38;;;24.95;31.58
550;BME280;20066;48.764;9.176;2023-05-02T12:18:23;98705.63;;;28.23;27.41
550;BME280;20066;48.764;9.176;2023-05-02T12:20:53;98705.19;;;27.79;27.69
550;BME280;20066;48.764;9.176;2023-05-02T12:23:24;98700.53;;;29.33;25.47
550;BME280;20066;48.764;9.176;2023-05-02T12:25:52;98702.09;;;25.82;31.06
550;BME280;20066;48.764;9.176;2023-05-02T12:28:20;98707.44;;;27.54;28.25
550;BME280;20066;48.764;9.176;2023-05-02T12:30:50;98714.22;;;26.14;29.52
550;BME280;20066;48.764;9.176;2023-05-02T12:33:18;98708.41;;;28.92;27.09
550;BME280;20066;48.764;9.176;2023-05-02T12:35:45;98701.94;;;27.34;28.71
550;BME280;20066;48.764;9.176;2023-05-02T12:38:15;98702.00;;;23.15;35.63
550;BME280;20066;48.764;9.176;2023-05-02T12:40:49;98707.97;;;21.89;38.55
550;BME280;20066;48.764;9.176;2023-05-02T12:43:18;98704.03;;;21.00;40.26
550;BME280;20066;48.764;9.176;2023-05-02T12:45:47;98700.50;;;20.11;42.29
550;BME280;20066;48.764;9.176;2023-05-02T12:48:19;98712.03;;;17.91;46.73
550;BME280;20066;48.764;9.176;2023-05-02T12:50:48;98704.63;;;19.00;45.56
550;BME280;20066;48.764;9.176;2023-05-02T12:53:16;98714.66;;;18.86;44.53
550;BME280;20066;48.764;9.176;2023-05-02T12:55:44;98710.00;;;18.51;45.34
550;BME280;20066;48.764;9.176;2023-05-02T12:58:13;98726.66;;;21.13;40.53
550;BME280;20066;48.764;9.176;2023-05-02T13:00:42;98717.75;;;22.43;37.08
550;BME280;20066;48.764;9.176;2023-05-02T13:03:13;98710.34;;;20.33;40.27
550;BME280;20066;48.764;9.176;2023-05-02T13:05:41;98713.53;;;20.45;40.50
550;BME280;20066;48.764;9.176;2023-05-02T13:08:08;98722.34;;;19.08;42.68
550;BME280;20066;48.764;9.176;2023-05-02T13:10:36;98717.41;;;21.45;38.31
550;BME280;20066;48.764;9.176;2023-05-02T13:13:04;98709.22;;;20.47;39.94
550;BME280;20066;48.764;9.176;2023-05-02T13:15:34;98727.31;;;21.04;39.00
550;BME280;20066;48.764;9.176;2023-05-02T13:18:02;98705.56;;;19.54;41.50
550;BME280;20066;48.764;9.176;2023-05-02T13:20:30;98714.53;;;18.22;44.48
550;BME280;20066;48.764;9.176;2023-05-02T13:22:58;98726.81;;;18.30;45.50
550;BME280;20066;48.764;9.176;2023-05-02T13:25:26;98724.56;;;20.28;40.53
550;BME280;20066;48.764;9.176;2023-05-02T13:27:53;98717.28;;;19.96;39.88
550;BME280;20066;48.764;9.176;2023-05-02T13:30:22;98711.41;;;18.23;42.55
550;BME280;20066;48.764;9.176;2023-05-02T13:32:51;98720.81;;;21.92;37.46
550;BME280;20066;48.764;9.176;2023-05-02T13:35:19;98716.03;;;22.06;36.93
550;BME280;20066;48.764;9.176;2023-05-02T13:37:47;98706.31;;;23.52;33.77
550;BME280;20066;48.764;9.176;2023-05-02T13:40:14;98707.69;;;23.75;33.59